Time;durP1;ratioP1;P1;durP2;ratioP2;P2;SDS_P1;SDS_P2;PMS_P1;PMS_P2;Temp;Humidity;BMP_temperature;BMP_pressure;BME280_temperature;BME280_humidity;BME280_pressure;Samples;Min_cycle;Max_cycle;Signal;HPM_P1;HPM_P2
2021/03/17 00:02:22;;;;;;;3.90;3.10;;;;;;;5.72;66.49;97052.28;5053853;28;20445;-66
2021/03/17 00:04:48;;;;;;;3.23;2.93;;;;;;;5.82;66.48;97050.56;5062434;28;20447;-67
2021/03/17 00:07:14;;;;;;;4.30;3.10;;;;;;;5.90;66.32;97043.00;5052131;28;20681;-67
2021/03/17 00:09:40;;;;;;;4.60;2.60;;;;;;;5.36;67.31;97047.34;5052175;28;20453;-67
2021/03/17 00:12:06;;;;;;;3.07;2.77;;;;;;;5.35;67.75;97045.72;5058692;28;20514;-67
2021/03/17 00:14:31;;;;;;;3.90;3.30;;;;;;;5.39;67.54;97047.09;5054016;28;20213;-67
2021/03/17 00:16:57;;;;;;;3.10;2.80;;;;;;;5.42;67.62;97048.66;5051598;28;20202;-68
2021/03/17 00:19:22;;;;;;;2.80;2.57;;;;;;;5.59;66.76;97045.50;5056996;28;20171;-67
2021/03/17 00:21:48;;;;;;;2.80;2.60;;;;;;;5.62;66.76;97049.59;5053927;28;20171;-68
2021/03/17 00:24:14;;;;;;;2.67;2.47;;;;;;;5.54;67.01;97047.66;5060836;28;20580;-67
2021/03/17 00:26:39;;;;;;;2.70;2.40;;;;;;;5.67;66.18;97043.09;5053573;28;20241;-66
2021/03/17 00:29:05;;;;;;;3.07;2.83;;;;;;;5.60;67.33;97044.53;5057630;28;20233;-66
2021/03/17 00:31:31;;;;;;;3.17;2.87;;;;;;;5.87;65.60;97038.03;5055319;28;20210;-68
2021/03/17 00:33:56;;;;;;;3.10;2.80;;;;;;;5.52;66.16;97042.56;5068290;28;20235;-67
2021/03/17 00:36:22;;;;;;;2.97;2.57;;;;;;;5.62;67.17;97031.41;5043799;28;20171;-68
2021/03/17 00:38:48;;;;;;;7.43;2.90;;;;;;;5.59;66.90;97037.69;5054001;28;20179;-68
2021/03/17 00:41:13;;;;;;;2.83;2.30;;;;;;;5.61;66.47;97035.78;5053912;28;20175;-67
2021/03/17 00:43:39;;;;;;;3.30;3.00;;;;;;;5.17;67.98;97037.59;5053105;28;20203;-67
2021/03/17 00:46:05;;;;;;;2.90;2.60;;;;;;;5.37;67.81;97030.81;5068748;28;20201;-70
2021/03/17 00:48:31;;;;;;;2.37;2.17;;;;;;;5.23;68.02;97026.72;5064127;28;20554;-68
2021/03/17 00:50:57;;;;;;;3.30;2.93;;;;;;;5.06;68.40;97030.66;5062266;28;20591;-67
2021/03/17 00:53:23;;;;;;;3.00;2.80;;;;;;;5.20;68.50;97027.81;5057528;28;20429;-68
2021/03/17 00:55:48;;;;;;;3.20;2.87;;;;;;;5.16;68.83;97028.97;5043725;28;20781;-67
2021/03/17 00:58:14;;;;;;;3.50;3.20;;;;;;;5.30;68.77;97014.88;5058508;28;20179;-68
2021/03/17 01:00:41;;;;;;;3.30;3.00;;;;;;;5.17;68.81;97017.66;5054342;28;20245;-68
2021/03/17 01:03:07;;;;;;;4.47;2.67;;;;;;;5.16;69.21;97015.19;5054830;28;20190;-67
2021/03/17 01:05:33;;;;;;;3.20;2.90;;;;;;;5.10;69.08;97015.66;5034712;28;20792;-67
2021/03/17 01:07:59;;;;;;;3.87;3.10;;;;;;;4.85;69.69;97012.41;5055248;28;20461;-67
2021/03/17 01:10:35;;;;;;;4.40;3.67;;;;;;;4.80;71.10;97010.19;5056098;28;20222;-69
2021/03/17 01:13:00;;;;;;;4.13;3.73;;;;;;;4.63;71.28;97003.72;5071327;28;20526;-67
2021/03/17 01:15:26;;;;;;;3.70;3.30;;;;;;;4.42;71.60;97001.03;5067311;28;20446;-70
2021/03/17 01:17:52;;;;;;;5.03;3.80;;;;;;;4.67;71.30;97012.91;5078514;28;20498;-67
2021/03/17 01:20:20;;;;;;;3.30;2.70;;;;;;;4.64;70.85;97000.19;5058946;28;20182;-67
2021/03/17 01:22:46;;;;;;;4.00;3.37;;;;;;;4.80;70.88;97005.00;5054105;28;20424;-66
2021/03/17 01:25:14;;;;;;;4.93;3.50;;;;;;;4.54;71.67;96992.28;5053918;28;20441;-66
2021/03/17 01:27:40;;;;;;;4.37;3.50;;;;;;;4.75;71.70;96999.31;5052589;28;20225;-67
2021/03/17 01:30:07;;;;;;;3.70;3.40;;;;;;;4.83;70.86;96996.13;5053865;28;20445;-67
2021/03/17 01:32:33;;;;;;;4.17;3.77;;;;;;;4.96;71.35;97002.00;5052579;28;20190;-67
2021/03/17 01:34:59;;;;;;;6.20;4.50;;;;;;;4.88;70.93;97001.78;5051449;28;20452;-66
2021/03/17 01:37:24;;;;;;;5.10;4.50;;;;;;;4.91;71.11;96998.97;5052031;28;20896;-67
2021/03/17 01:39:50;;;;;;;4.93;3.90;;;;;;;4.93;71.32;96989.25;5052326;28;20191;-66
2021/03/17 01:42:16;;;;;;;4.03;3.63;;;;;;;5.04;70.72;96999.59;5050882;28;20626;-67
2021/03/17 01:44:42;;;;;;;3.53;3.23;;;;;;;5.15;70.19;96993.56;5052846;28;20198;-68
2021/03/17 01:47:07;;;;;;;4.27;3.87;;;;;;;4.99;70.26;96991.38;5044201;28;20183;-66
2021/03/17 01:49:33;;;;;;;4.20;3.80;;;;;;;4.86;70.91;96998.47;5056489;28;20605;-66
2021/03/17 01:51:59;;;;;;;5.70;3.90;;;;;;;4.80;71.38;96997.19;5053811;28;20183;-68
2021/03/17 01:54:25;;;;;;;5.97;3.90;;;;;;;4.65;72.37;96996.66;5053585;28;20195;-68
2021/03/17 01:56:51;;;;;;;4.70;4.10;;;;;;;4.76;72.19;96993.19;5052932;28;20452;-68
2021/03/17 01:59:17;;;;;;;5.10;4.60;;;;;;;4.65;71.76;96991.44;5058167;28;20259;-68
2021/03/17 02:01:42;;;;;;;5.17;4.53;;;;;;;4.84;71.53;96997.78;5044876;28;20171;-68
2021/03/17 02:04:09;;;;;;;4.90;4.03;;;;;;;4.94;71.67;96996.09;5042586;28;20187;-68
2021/03/17 02:06:34;;;;;;;8.97;4.67;;;;;;;4.78;71.82;96990.47;5050149;28;20240;-67
2021/03/17 02:09:00;;;;;;;5.10;4.40;;;;;;;4.83;71.55;96993.53;5060575;28;20964;-67
2021/03/17 02:11:25;;;;;;;5.37;4.40;;;;;;;5.05;70.72;96988.25;5056320;28;20264;-67
2021/03/17 02:14:01;;;;;;;5.30;4.30;;;;;;;5.14;71.01;96986.72;5067776;28;20186;-67
2021/03/17 02:16:34;;;;;;;5.30;4.80;;;;;;;4.42;74.00;96986.25;5049239;28;20190;-68
2021/03/17 02:19:23;;;;;;;5.53;4.20;;;;;;;4.59;73.82;96981.53;5043595;28;20421;-68
2021/03/17 02:22:17;;;;;;;5.30;4.30;;;;;;;4.59;73.30;96989.31;5056610;28;20453;-69
2021/03/17 02:24:52;;;;;;;5.00;4.50;;;;;;;4.62;72.61;96983.91;5056421;28;20491;-68
2021/03/17 02:27:27;;;;;;;6.50;4.83;;;;;;;4.58;72.96;96980.72;5053557;28;20955;-68
2021/03/17 02:30:29;;;;;;;6.00;4.70;;;;;;;4.53;73.25;96977.66;5055320;28;20417;-67
2021/03/17 02:33:02;;;;;;;4.47;4.07;;;;;;;4.63;73.05;96976.91;5054526;28;20421;-66
2021/03/17 02:35:29;;;;;;;5.03;4.50;;;;;;;4.33;74.39;96968.00;5050505;28;20429;-66
2021/03/17 02:37:56;;;;;;;4.40;3.90;;;;;;;4.40;73.86;96977.78;5038255;28;20551;-68
2021/03/17 02:40:30;;;;;;;4.43;4.00;;;;;;;4.53;74.01;96979.44;5055520;28;20420;-67
2021/03/17 02:43:01;;;;;;;5.13;4.37;;;;;;;4.54;73.42;96979.31;5056501;28;20453;-68
2021/03/17 02:45:32;;;;;;;5.47;4.57;;;;;;;4.48;73.01;96978.94;5046692;28;20445;-67
2021/03/17 02:48:17;;;;;;;5.10;4.37;;;;;;;4.61;72.74;96980.47;5059394;28;20520;-67
2021/03/17 02:50:45;;;;;;;5.97;4.60;;;;;;;4.27;73.77;96979.69;5055112;28;20479;-67
2021/03/17 02:53:13;;;;;;;7.70;4.27;;;;;;;4.43;73.79;96980.13;5061405;28;20961;-68
2021/03/17 02:55:44;;;;;;;5.50;3.90;;;;;;;4.32;74.59;96980.13;5046604;28;20456;-66
2021/03/17 02:58:10;;;;;;;5.00;4.33;;;;;;;4.55;73.25;96985.31;5064828;28;20727;-67
2021/03/17 03:00:36;;;;;;;5.20;4.60;;;;;;;4.29;73.41;96981.22;5054247;28;20479;-67
2021/03/17 03:03:02;;;;;;;6.37;5.00;;;;;;;4.54;73.97;96981.06;5054791;28;20453;-67
2021/03/17 03:05:28;;;;;;;5.30;4.67;;;;;;;4.20;73.58;96981.06;5053227;28;20191;-67
2021/03/17 03:07:56;;;;;;;4.83;4.30;;;;;;;4.39;73.14;96973.53;5054266;28;20460;-67
2021/03/17 03:10:24;;;;;;;6.20;4.83;;;;;;;4.56;73.20;96976.56;5054164;28;20584;-67
2021/03/17 03:12:50;;;;;;;5.00;4.40;;;;;;;4.32;73.86;96972.34;5055540;28;20490;-67
2021/03/17 03:15:21;;;;;;;5.50;4.50;;;;;;;4.28;73.59;96978.75;5060996;28;20429;-66
2021/03/17 03:17:47;;;;;;;5.10;4.60;;;;;;;4.58;73.10;96982.47;5059457;28;20447;-66
2021/03/17 03:20:19;;;;;;;4.93;4.30;;;;;;;4.72;72.76;96982.22;5052616;28;20479;-67
2021/03/17 03:22:45;;;;;;;7.00;5.07;;;;;;;4.81;72.55;96979.84;5054538;28;20859;-66
2021/03/17 03:25:12;;;;;;;9.37;5.00;;;;;;;4.81;72.61;96988.47;5054438;28;20430;-67
2021/03/17 03:27:38;;;;;;;5.20;4.30;;;;;;;4.85;71.85;96983.84;5053844;28;20430;-67
2021/03/17 03:30:12;;;;;;;9.20;4.87;;;;;;;5.08;71.09;96976.81;5054335;28;20426;-67
2021/03/17 03:32:39;;;;;;;5.23;4.00;;;;;;;5.07;71.45;96970.78;5053098;28;20429;-68
2021/03/17 03:35:06;;;;;;;4.67;4.17;;;;;;;4.68;71.88;96972.19;5052913;28;20457;-69
2021/03/17 03:37:32;;;;;;;6.30;5.00;;;;;;;4.60;73.01;96985.78;5053182;28;20480;-66
2021/03/17 03:39:58;;;;;;;6.23;4.87;;;;;;;4.78;72.32;96974.91;5054393;28;20422;-66
2021/03/17 03:42:24;;;;;;;5.83;5.10;;;;;;;4.61;72.33;96987.44;5058535;28;20469;-66
2021/03/17 03:44:50;;;;;;;6.87;5.17;;;;;;;4.76;71.85;96982.78;5056393;28;20264;-67
2021/03/17 03:47:15;;;;;;;8.20;5.70;;;;;;;4.71;72.22;96983.16;5051863;28;20273;-66
2021/03/17 03:49:42;;;;;;;5.30;4.60;;;;;;;4.82;72.40;96982.31;5057144;28;20284;-66
2021/03/17 03:52:13;;;;;;;7.87;4.90;;;;;;;4.58;72.98;96985.06;5052208;28;20175;-67
2021/03/17 03:54:52;;;;;;;6.30;5.50;;;;;;;4.61;72.63;96983.06;5053313;28;20575;-67
2021/03/17 03:57:24;;;;;;;6.63;5.00;;;;;;;4.58;72.70;96985.91;5063057;28;20479;-67
2021/03/17 03:59:53;;;;;;;6.07;5.07;;;;;;;4.46;73.15;96987.69;5047804;28;20446;-67
2021/03/17 04:02:27;;;;;;;6.90;5.67;;;;;;;4.14;74.30;96988.41;5052505;28;20417;-66
2021/03/17 04:04:53;;;;;;;7.93;5.87;;;;;;;4.32;73.88;96987.09;5043735;28;20453;-66
2021/03/17 04:07:20;;;;;;;7.67;5.90;;;;;;;4.20;74.76;96986.28;5069133;28;20740;-66
2021/03/17 04:09:48;;;;;;;8.47;6.23;;;;;;;4.24;74.83;96990.28;5050838;28;20480;-67
2021/03/17 04:12:15;;;;;;;9.57;6.50;;;;;;;3.99;75.73;96989.56;5051581;28;20843;-67
2021/03/17 04:14:44;;;;;;;7.80;6.47;;;;;;;3.93;75.89;97000.38;5050917;28;20437;-66
2021/03/17 04:17:23;;;;;;;8.47;6.20;;;;;;;4.06;75.86;96995.94;5034645;28;20483;-67
2021/03/17 04:19:51;;;;;;;9.50;7.00;;;;;;;3.77;76.61;96990.34;5083369;28;20413;-66
2021/03/17 04:22:17;;;;;;;8.10;6.30;;;;;;;4.11;75.42;96993.81;5051405;28;20414;-67
2021/03/17 04:24:43;;;;;;;9.33;6.97;;;;;;;3.89;76.63;96993.81;5051812;28;20432;-67
2021/03/17 04:27:11;;;;;;;8.33;7.10;;;;;;;3.92;76.53;96994.38;5046936;28;20892;-67
2021/03/17 04:29:38;;;;;;;8.87;7.03;;;;;;;3.72;77.32;96997.66;5058933;28;20199;-68
2021/03/17 04:32:04;;;;;;;9.87;7.80;;;;;;;4.03;76.13;96998.78;5071477;28;20449;-67
2021/03/17 04:34:30;;;;;;;12.00;8.37;;;;;;;3.94;76.71;97000.28;5056276;28;20449;-67
2021/03/17 04:36:56;;;;;;;12.50;8.17;;;;;;;3.60;77.44;97007.97;5048496;28;20429;-66
2021/03/17 04:39:23;;;;;;;10.13;8.07;;;;;;;3.86;76.93;97005.22;5051243;28;20413;-66
2021/03/17 04:41:49;;;;;;;12.77;8.97;;;;;;;3.76;77.09;97002.50;5053669;28;20429;-67
2021/03/17 04:44:15;;;;;;;11.57;8.63;;;;;;;3.76;77.15;97005.09;5051553;28;20523;-64
2021/03/17 04:46:42;;;;;;;19.77;9.30;;;;;;;4.20;76.63;97007.03;5029679;28;20427;-65
2021/03/17 04:49:08;;;;;;;12.60;9.07;;;;;;;4.13;75.61;97002.31;5060944;28;20623;-66
2021/03/17 04:51:35;;;;;;;12.53;8.73;;;;;;;3.90;76.97;97003.25;5050572;28;20421;-66
2021/03/17 04:54:01;;;;;;;13.80;10.00;;;;;;;4.16;75.75;97011.63;5056894;28;20910;-67
2021/03/17 04:56:27;;;;;;;14.27;9.57;;;;;;;4.19;75.99;97005.38;5067243;28;20422;-68
2021/03/17 04:58:53;;;;;;;100.47;26.63;;;;;;;4.00;76.33;97011.97;5070385;28;20166;-68
2021/03/17 05:01:19;;;;;;;74.27;21.63;;;;;;;3.94;76.78;97008.06;5052821;28;20479;-68
2021/03/17 05:03:46;;;;;;;28.73;13.00;;;;;;;4.05;76.22;97017.63;5051061;28;20190;-66
2021/03/17 05:06:12;;;;;;;47.63;16.47;;;;;;;4.04;76.06;97018.56;5051227;28;20449;-67
2021/03/17 05:08:41;;;;;;;43.87;15.87;;;;;;;4.12;76.19;97021.41;5063318;28;20453;-68
2021/03/17 05:11:07;;;;;;;54.07;16.17;;;;;;;4.28;75.00;97020.25;5084577;28;20179;-68
2021/03/17 05:13:35;;;;;;;19.13;12.07;;;;;;;4.39;75.80;97028.03;5068921;28;20433;-67
2021/03/17 05:16:02;;;;;;;18.00;11.37;;;;;;;4.35;74.93;97024.03;5052684;28;20450;-68
2021/03/17 05:18:28;;;;;;;15.73;11.40;;;;;;;4.68;74.29;97026.72;5054412;28;20422;-68
2021/03/17 05:20:54;;;;;;;15.07;11.10;;;;;;;4.64;73.79;97027.91;5050618;28;20425;-67
2021/03/17 05:23:20;;;;;;;22.20;14.07;;;;;;;4.44;75.08;97028.50;5050668;28;20266;-68
2021/03/17 05:25:47;;;;;;;41.57;17.20;;;;;;;4.64;74.32;97022.69;5050265;28;20511;-67
2021/03/17 05:28:15;;;;;;;47.37;18.50;;;;;;;4.62;73.64;97020.25;5049590;28;20930;-67
2021/03/17 05:30:42;;;;;;;45.67;17.73;;;;;;;4.45;74.20;97027.56;5051692;28;20483;-68
2021/03/17 05:33:11;;;;;;;31.63;14.40;;;;;;;4.52;74.66;97027.09;5049725;28;20422;-68
2021/03/17 05:35:37;;;;;;;19.47;12.10;;;;;;;4.68;73.50;97027.53;5050411;28;20503;-68
2021/03/17 05:38:03;;;;;;;16.93;12.80;;;;;;;4.57;74.11;97019.75;5049534;28;20414;-68
2021/03/17 05:40:29;;;;;;;16.93;12.17;;;;;;;4.56;73.68;97026.72;5051768;28;20426;-68
2021/03/17 05:42:58;;;;;;;20.13;14.17;;;;;;;4.52;74.98;97021.91;5050093;28;20432;-68
2021/03/17 05:45:24;;;;;;;23.70;15.23;;;;;;;4.23;75.00;97033.56;5052915;28;20456;-67
2021/03/17 05:47:51;;;;;;;21.73;14.27;;;;;;;4.17;75.14;97038.38;5053637;28;20457;-68
2021/03/17 05:50:18;;;;;;;20.10;13.80;;;;;;;4.22;76.11;97038.88;5067034;28;20206;-68
2021/03/17 05:52:44;;;;;;;23.43;15.87;;;;;;;3.97;76.02;97038.13;5058065;28;20429;-67
2021/03/17 05:55:11;;;;;;;20.97;13.70;;;;;;;4.04;75.72;97041.91;5055072;28;20514;-68
2021/03/17 05:57:38;;;;;;;22.47;15.70;;;;;;;4.14;76.24;97055.84;5058693;28;20421;-68
2021/03/17 06:00:06;;;;;;;24.33;15.97;;;;;;;3.94;76.95;97048.72;5055442;28;20448;-65
2021/03/17 06:02:32;;;;;;;26.40;17.00;;;;;;;4.17;75.83;97054.78;5054638;28;20908;-66
2021/03/17 06:04:58;;;;;;;24.37;16.97;;;;;;;4.21;75.64;97053.63;5050800;28;20539;-67
2021/03/17 06:07:25;;;;;;;25.80;16.63;;;;;;;4.22;76.18;97057.84;5061832;28;20426;-67
2021/03/17 06:09:55;;;;;;;27.57;16.83;;;;;;;4.42;75.26;97056.31;5053554;28;20453;-67
2021/03/17 06:12:22;;;;;;;28.23;17.67;;;;;;;4.16;76.37;97055.72;5054638;28;20924;-66
2021/03/17 06:14:50;;;;;;;26.23;16.27;;;;;;;4.24;76.11;97061.16;5052670;28;20480;-66
2021/03/17 06:17:20;;;;;;;25.30;17.27;;;;;;;4.23;76.41;97061.28;5058519;28;20536;-66
2021/03/17 06:19:49;;;;;;;29.77;18.27;;;;;;;4.29;75.83;97058.19;5053285;28;20516;-66
2021/03/17 06:22:15;;;;;;;28.27;16.97;;;;;;;4.16;76.54;97060.91;5054574;28;20425;-69
2021/03/17 06:24:41;;;;;;;25.97;17.70;;;;;;;3.84;76.94;97070.16;5062036;28;20480;-69
2021/03/17 06:27:07;;;;;;;23.40;16.07;;;;;;;3.71;77.57;97069.41;5054059;28;20962;-67
2021/03/17 06:29:33;;;;;;;28.37;18.83;;;;;;;4.09;77.09;97075.28;5052878;28;20219;-66
2021/03/17 06:31:59;;;;;;;24.87;16.90;;;;;;;4.02;76.38;97077.53;5053113;28;20432;-67
2021/03/17 06:34:24;;;;;;;24.67;16.90;;;;;;;4.14;76.65;97080.94;5053297;28;20202;-67
2021/03/17 06:36:52;;;;;;;25.13;16.67;;;;;;;4.20;75.92;97074.47;5045457;28;20301;-67
2021/03/17 06:39:19;;;;;;;27.10;17.07;;;;;;;4.09;76.29;97077.91;5054454;28;20179;-67
2021/03/17 06:41:51;;;;;;;24.80;15.63;;;;;;;4.01;76.85;97081.06;5052870;28;20520;-66
2021/03/17 06:44:27;;;;;;;25.73;17.23;;;;;;;4.30;75.47;97080.63;5054120;28;21345;-67
2021/03/17 06:47:11;;;;;;;25.10;16.23;;;;;;;4.03;77.58;97083.53;5053750;28;20472;-67
2021/03/17 06:49:42;;;;;;;22.87;15.50;;;;;;;4.48;75.22;97083.59;5061640;28;20877;-67
2021/03/17 06:52:40;;;;;;;24.47;16.10;;;;;;;4.28;75.64;97083.34;5056638;28;20464;-67
2021/03/17 06:55:16;;;;;;;22.10;15.47;;;;;;;4.03;77.65;97096.50;5011861;28;20491;-68
2021/03/17 06:57:50;;;;;;;27.33;15.63;;;;;;;3.98;77.40;97102.03;5015611;28;20490;-67
2021/03/17 07:00:22;;;;;;;26.30;16.00;;;;;;;3.78;78.33;97100.88;5011407;28;20474;-66
2021/03/17 07:02:52;;;;;;;24.93;15.40;;;;;;;3.80;78.37;97112.78;5016423;28;20527;-68
2021/03/17 07:05:18;;;;;;;27.40;17.43;;;;;;;3.94;77.78;97121.31;4996199;28;20490;-67
2021/03/17 07:07:51;;;;;;;22.73;15.73;;;;;;;3.98;78.22;97113.22;5013660;28;20463;-68
2021/03/17 07:10:36;;;;;;;21.63;14.87;;;;;;;3.68;78.08;97121.47;5004119;28;20232;-67
2021/03/17 07:13:04;;;;;;;24.83;15.33;;;;;;;3.42;78.36;97115.56;5011990;28;20865;-66
2021/03/17 07:15:30;;;;;;;34.40;18.47;;;;;;;3.51;78.29;97120.09;5014253;28;20525;-67
2021/03/17 07:18:31;;;;;;;32.93;18.13;;;;;;;3.44;78.42;97124.06;5012569;28;20474;-68
2021/03/17 07:21:03;;;;;;;52.90;21.13;;;;;;;3.83;77.34;97122.13;4982946;28;20515;-67
2021/03/17 07:23:44;;;;;;;42.10;19.30;;;;;;;4.27;76.10;97124.97;4977380;28;20513;-67
2021/03/17 07:26:10;;;;;;;39.20;17.40;;;;;;;4.22;75.62;97124.47;4979505;28;20471;-68
2021/03/17 07:28:48;;;;;;;31.23;16.37;;;;;;;4.30;76.00;97127.31;4972848;28;20910;-66
2021/03/17 07:31:17;;;;;;;25.27;15.43;;;;;;;4.23;75.94;97131.31;5028339;28;20225;-67
2021/03/17 07:33:44;;;;;;;52.93;19.70;;;;;;;4.00;75.85;97136.47;5053245;28;20441;-66
2021/03/17 07:36:10;;;;;;;42.03;17.27;;;;;;;4.24;75.75;97122.59;5026261;28;20458;-68
2021/03/17 07:38:36;;;;;;;50.77;19.60;;;;;;;4.25;75.35;97126.84;5051924;28;20513;-67
2021/03/17 07:41:02;;;;;;;35.77;17.27;;;;;;;4.24;75.32;97127.78;5049897;28;20504;-67
2021/03/17 07:43:30;;;;;;;29.50;16.03;;;;;;;4.48;74.21;97129.47;5071406;28;20237;-68
2021/03/17 07:45:56;;;;;;;23.57;13.90;;;;;;;4.70;73.71;97124.31;5054109;28;20441;-67
2021/03/17 07:48:22;;;;;;;24.20;15.20;;;;;;;4.73;73.64;97123.25;5031673;28;20458;-67
2021/03/17 07:50:47;;;;;;;25.17;14.00;;;;;;;4.67;72.16;97128.91;5051085;28;20422;-68
2021/03/17 07:53:19;;;;;;;25.07;14.60;;;;;;;4.98;72.14;97129.16;5035170;28;20485;-67
2021/03/17 07:55:45;;;;;;;22.50;13.23;;;;;;;5.16;71.49;97125.13;5048883;28;20214;-67
2021/03/17 07:58:13;;;;;;;19.70;13.00;;;;;;;5.81;70.13;97129.56;5057741;28;20414;-67
2021/03/17 08:00:39;;;;;;;18.93;12.67;;;;;;;5.71;69.66;97131.25;5054406;28;20758;-68
2021/03/17 08:03:05;;;;;;;23.43;14.03;;;;;;;5.43;70.26;97134.28;5053493;28;20424;-67
2021/03/17 08:05:33;;;;;;;21.27;14.07;;;;;;;5.30;71.27;97137.03;5053310;28;20195;-66
2021/03/17 08:08:01;;;;;;;19.17;13.10;;;;;;;5.21;70.68;97143.78;5060004;28;20943;-68
2021/03/17 08:10:26;;;;;;;24.17;13.83;;;;;;;5.46;71.38;97141.84;5051976;28;20913;-68
2021/03/17 08:12:53;;;;;;;25.20;11.93;;;;;;;5.37;70.48;97138.22;5053065;28;20430;-67
2021/03/17 08:15:19;;;;;;;22.53;13.27;;;;;;;5.37;69.14;97133.00;5053783;28;20229;-68
2021/03/17 08:17:44;;;;;;;20.27;11.80;;;;;;;5.73;68.01;97142.38;5053104;28;20928;-67
2021/03/17 08:20:14;;;;;;;15.20;10.10;;;;;;;5.44;66.41;97142.91;5052093;28;20928;-67
2021/03/17 08:22:40;;;;;;;13.73;8.87;;;;;;;5.41;66.12;97130.16;5052320;28;20186;-68
2021/03/17 08:25:07;;;;;;;16.60;11.20;;;;;;;5.75;65.70;97130.06;5052498;28;20456;-69
2021/03/17 08:27:34;;;;;;;14.87;9.33;;;;;;;5.92;63.63;97132.09;5052978;28;20571;-69
2021/03/17 08:30:10;;;;;;;9.90;6.33;;;;;;;5.77;60.50;97128.97;5052286;28;20477;-69
2021/03/17 08:32:57;;;;;;;7.80;5.20;;;;;;;6.44;58.38;97126.19;5059314;28;20900;-70
2021/03/17 08:35:23;;;;;;;8.40;6.43;;;;;;;6.76;58.83;97125.28;5052399;28;20433;-67
2021/03/17 08:37:55;;;;;;;13.37;7.40;;;;;;;6.78;58.81;97123.38;5051431;28;20904;-66
2021/03/17 08:40:27;;;;;;;8.60;6.47;;;;;;;6.82;59.41;97127.34;5053226;28;20242;-68
2021/03/17 08:42:52;;;;;;;9.90;6.47;;;;;;;7.05;59.11;97121.97;5064161;28;20885;-69
2021/03/17 08:45:19;;;;;;;11.03;6.57;;;;;;;7.05;57.87;97130.59;5053342;28;20444;-70
2021/03/17 08:47:46;;;;;;;8.53;6.60;;;;;;;7.11;57.45;97131.84;5050630;28;20538;-71
2021/03/17 08:50:15;;;;;;;11.90;6.80;;;;;;;6.56;59.37;97135.59;5085728;28;20422;-70
2021/03/17 08:52:48;;;;;;;11.03;6.80;;;;;;;6.66;58.99;97138.25;5051748;28;20517;-69
2021/03/17 08:55:20;;;;;;;8.50;5.87;;;;;;;6.47;58.98;97135.56;5049884;28;20441;-66
2021/03/17 08:57:54;;;;;;;7.80;5.83;;;;;;;6.22;59.24;97134.97;5050371;28;20433;-69
2021/03/17 09:00:42;;;;;;;9.27;6.13;;;;;;;5.59;60.70;97130.47;5054427;28;20421;-69
2021/03/17 09:03:09;;;;;;;9.13;6.60;;;;;;;5.62;60.63;97141.44;5050957;28;20793;-69
2021/03/17 09:05:35;;;;;;;12.00;6.47;;;;;;;5.90;60.13;97121.03;5051188;28;20766;-66
2021/03/17 09:08:03;;;;;;;9.23;7.20;;;;;;;6.05;60.73;97125.97;5049856;28;20449;-67
2021/03/17 09:10:58;;;;;;;9.97;6.97;;;;;;;6.82;59.72;97122.13;5052592;28;20429;-67
2021/03/17 09:13:49;;;;;;;13.30;6.87;;;;;;;7.45;58.39;97117.69;5004487;28;20553;-67
2021/03/17 09:16:15;;;;;;;11.33;5.60;;;;;;;7.81;54.90;97110.16;4992951;28;20442;-67
2021/03/17 09:18:40;;;;;;;9.80;6.27;;;;;;;8.14;52.72;97108.06;5018733;28;20415;-67
2021/03/17 09:21:06;;;;;;;6.00;4.47;;;;;;;8.58;50.42;97104.97;5025238;28;20238;-68
2021/03/17 09:23:38;;;;;;;5.73;4.30;;;;;;;8.63;47.23;97110.63;5014056;28;20573;-67
2021/03/17 09:26:04;;;;;;;4.83;3.43;;;;;;;8.79;46.48;97103.97;4992146;28;20285;-67
2021/03/17 09:28:37;;;;;;;6.83;4.70;;;;;;;9.49;47.32;97096.44;5009175;28;20469;-67
2021/03/17 09:31:07;;;;;;;8.03;4.80;;;;;;;7.75;50.82;97098.47;5011619;28;20479;-68
2021/03/17 09:33:34;;;;;;;6.80;5.17;;;;;;;6.95;51.39;97102.84;5025242;28;20458;-67
2021/03/17 09:36:10;;;;;;;8.60;5.37;;;;;;;6.76;53.33;97102.66;5025711;28;20450;-67
2021/03/17 09:38:38;;;;;;;6.77;4.90;;;;;;;6.53;52.42;97109.81;5018655;28;20467;-67
2021/03/17 09:41:27;;;;;;;6.87;5.17;;;;;;;6.91;52.24;97118.78;5009634;28;20443;-68
2021/03/17 09:43:59;;;;;;;6.73;6.03;;;;;;;7.03;50.79;97118.66;5009900;28;20438;-67
2021/03/17 09:46:43;;;;;;;6.67;5.17;;;;;;;6.59;52.95;97119.72;5010705;28;20930;-66
2021/03/17 09:49:26;;;;;;;10.80;5.23;;;;;;;7.50;50.48;97112.88;5019157;28;20472;-66
2021/03/17 09:51:58;;;;;;;13.13;4.50;;;;;;;8.51;48.17;97098.69;5051015;28;20794;-66
2021/03/17 09:54:28;;;;;;;6.83;4.60;;;;;;;9.43;46.85;97104.06;5051515;28;20452;-66
2021/03/17 09:56:56;;;;;;;5.40;3.90;;;;;;;9.05;45.07;97104.97;5061271;28;20432;-67
2021/03/17 09:59:27;;;;;;;21.77;6.30;;;;;;;8.93;44.92;97108.72;5051440;28;20421;-67
2021/03/17 10:02:11;;;;;;;14.50;5.27;;;;;;;7.55;45.40;97113.28;5050117;28;20840;-67
2021/03/17 10:04:45;;;;;;;18.03;6.00;;;;;;;7.43;47.53;97104.78;5050698;28;20448;-67
2021/03/17 10:07:13;;;;;;;6.13;3.60;;;;;;;7.69;46.83;97107.69;5042485;28;20851;-66
2021/03/17 10:09:40;;;;;;;5.93;3.90;;;;;;;8.24;46.02;97100.22;5050630;28;20825;-67
2021/03/17 10:12:10;;;;;;;16.80;6.30;;;;;;;7.91;47.21;97094.50;5050177;28;20421;-67
2021/03/17 10:14:38;;;;;;;11.67;5.40;;;;;;;7.98;47.59;97099.03;5049171;28;20456;-68
2021/03/17 10:17:07;;;;;;;7.03;4.17;;;;;;;7.98;46.27;97092.97;5060672;28;20770;-68
2021/03/17 10:19:33;;;;;;;3.67;3.33;;;;;;;9.14;44.13;97084.94;5050571;28;20429;-67
2021/03/17 10:21:59;;;;;;;13.90;5.77;;;;;;;8.64;43.78;97088.75;5050958;28;20516;-68
2021/03/17 10:24:30;;;;;;;7.20;3.67;;;;;;;8.84;44.41;97080.81;5048119;28;20445;-68
2021/03/17 10:26:55;;;;;;;18.00;5.93;;;;;;;8.28;46.36;97085.94;5059768;28;20437;-67
2021/03/17 10:29:21;;;;;;;10.47;4.60;;;;;;;8.97;44.18;97078.72;5043447;28;20990;-67
2021/03/17 10:31:47;;;;;;;3.83;3.00;;;;;;;8.61;44.27;97075.97;5053291;28;20240;-67
2021/03/17 10:34:13;;;;;;;4.80;3.77;;;;;;;9.29;43.31;97076.59;5046247;28;20260;-68
2021/03/17 10:36:40;;;;;;;3.27;2.93;;;;;;;9.39;43.36;97072.13;5054362;28;20569;-68
2021/03/17 10:39:05;;;;;;;5.90;3.67;;;;;;;8.93;44.40;97066.06;5056267;28;20418;-68
2021/03/17 10:41:42;;;;;;;6.87;3.63;;;;;;;8.46;45.19;97062.53;5054457;28;20436;-70
2021/03/17 10:44:23;;;;;;;6.40;3.33;;;;;;;8.40;44.81;97063.91;5057080;28;20211;-67
2021/03/17 10:47:02;;;;;;;3.50;3.20;;;;;;;7.84;44.49;97074.16;5054539;28;20435;-68
2021/03/17 10:49:29;;;;;;;4.10;2.53;;;;;;;8.36;43.29;97062.53;5055411;28;20552;-69
2021/03/17 10:51:55;;;;;;;2.90;2.60;;;;;;;8.13;43.91;97068.09;5063888;28;20432;-67
2021/03/17 10:54:27;;;;;;;5.20;3.20;;;;;;;7.88;44.59;97072.09;5059991;28;20491;-67
2021/03/17 10:56:53;;;;;;;5.63;3.37;;;;;;;7.92;44.16;97070.88;5055930;28;20428;-68
2021/03/17 10:59:27;;;;;;;4.23;2.97;;;;;;;8.27;44.31;97064.22;5045331;28;20917;-68
2021/03/17 11:02:21;;;;;;;4.90;2.70;;;;;;;8.49;43.27;97058.81;5053348;28;20247;-68
2021/03/17 11:05:05;;;;;;;4.77;3.17;;;;;;;8.25;43.28;97052.28;5053581;28;20933;-69
2021/03/17 11:07:46;;;;;;;3.40;2.50;;;;;;;7.79;43.79;97050.28;5053632;28;20421;-68
2021/03/17 11:10:30;;;;;;;7.13;3.20;;;;;;;7.73;45.09;97050.84;5057587;28;21153;-66
2021/03/17 11:12:56;;;;;;;4.60;2.70;;;;;;;8.11;44.54;97056.16;5053600;28;20728;-68
2021/03/17 11:15:27;;;;;;;4.30;2.50;;;;;;;8.37;44.04;97055.56;5053938;28;20448;-68
2021/03/17 11:17:53;;;;;;;5.03;2.73;;;;;;;8.05;45.11;97060.16;5055353;28;20179;-68
2021/03/17 11:20:20;;;;;;;3.10;2.70;;;;;;;7.52;45.76;97064.00;5038845;28;20492;-67
2021/03/17 11:22:45;;;;;;;6.23;3.00;;;;;;;7.66;45.71;97058.38;5052941;28;20563;-67
2021/03/17 11:25:12;;;;;;;4.60;3.77;;;;;;;7.42;46.23;97061.41;5051375;28;20564;-67
2021/03/17 11:27:41;;;;;;;4.10;3.00;;;;;;;7.69;45.38;97058.13;5052152;28;20187;-68
2021/03/17 11:30:13;;;;;;;4.07;3.67;;;;;;;7.60;46.81;97058.94;5057912;28;20965;-68
2021/03/17 11:32:39;;;;;;;11.70;3.50;;;;;;;7.79;45.87;97052.06;5052945;28;20782;-67
2021/03/17 11:35:06;;;;;;;11.10;5.10;;;;;;;7.45;46.79;97057.69;5060924;28;20504;-68
2021/03/17 11:37:32;;;;;;;70.30;16.40;;;;;;;7.29;47.54;97058.25;5050895;28;20240;-68
2021/03/17 11:39:59;;;;;;;21.57;7.53;;;;;;;7.04;48.60;97055.19;5055627;28;20421;-68
2021/03/17 11:42:29;;;;;;;26.50;7.93;;;;;;;7.29;50.23;97060.84;5064960;28;20817;-68
2021/03/17 11:44:55;;;;;;;53.20;14.00;;;;;;;6.44;52.41;97063.72;5055866;28;20487;-67
2021/03/17 11:47:21;;;;;;;32.10;9.37;;;;;;;6.88;52.93;97066.06;5052348;28;20430;-68